sensor_id;sensor_type;location;lat;lon;timestamp;temperature;humidity
5246;DHT22;54412;51.206;6.888;2023-12-07T00:01:14;3.00;99.90
5246;DHT22;54412;51.206;6.888;2023-12-07T00:03:40;3.10;99.90
5246;DHT22;54412;51.206;6.888;2023-12-07T00:06:05;3.10;99.90
5246;DHT22;54412;51.206;6.888;2023-12-07T00:08:31;3.00;99.90
5246;DHT22;54412;51.206;6.888;2023-12-07T00:10:57;3.00;99.90
5246;DHT22;54412;51.206;6.888;2023-12-07T00:13:22;3.00;99.90
5246;DHT22;54412;51.206;6.888;2023-12-07T00:15:48;3.00;99.90
5246;DHT22;54412;51.206;6.888;2023-12-07T00:18:14;3.10;99.90
5246;DHT22;54412;51.206;6.888;2023-12-07T00:20:39;3.00;99.90
5246;DHT22;54412;51.206;6.888;2023-12-07T00:23:05;2.80;99.90
5246;DHT22;54412;51.206;6.888;2023-12-07T00:25:31;2.80;99.90
5246;DHT22;54412;51.206;6.888;2023-12-07T00:27:57;2.80;99.90
5246;DHT22;54412;51.206;6.888;2023-12-07T00:30:22;2.90;99.90
5246;DHT22;54412;51.206;6.888;2023-12-07T00:32:48;3.00;99.90
5246;DHT22;54412;51.206;6.888;2023-12-07T00:35:14;2.90;99.90
5246;DHT22;54412;51.206;6.888;2023-12-07T00:37:41;3.00;99.90
5246;DHT22;54412;51.206;6.888;2023-12-07T00:40:07;2.90;99.90
5246;DHT22;54412;51.206;6.888;2023-12-07T00:42:33;2.90;99.90
5246;DHT22;54412;51.206;6.888;2023-12-07T00:45:00;2.80;99.90
5246;DHT22;54412;51.206;6.888;2023-12-07T00:47:26;2.90;99.90
5246;DHT22;54412;51.206;6.888;2023-12-07T00:49:51;2.80;99.90
5246;DHT22;54412;51.206;6.888;2023-12-07T00:52:17;2.80;99.90
5246;DHT22;54412;51.206;6.888;2023-12-07T00:54:43;2.80;99.90
5246;DHT22;54412;51.206;6.888;2023-12-07T00:57:09;2.90;99.90
5246;DHT22;54412;51.206;6.888;2023-12-07T00:59:35;2.90;99.90
5246;DHT22;54412;51.206;6.888;2023-12-07T01:02:08;2.90;99.90
5246;DHT22;54412;51.206;6.888;2023-12-07T01:04:34;2.90;99.90
5246;DHT22;54412;51.206;6.888;2023-12-07T01:06:59;2.90;99.90
5246;DHT22;54412;51.206;6.888;2023-12-07T01:09:26;2.90;99.90
5246;DHT22;54412;51.206;6.888;2023-12-07T01:11:51;2.90;99.90
5246;DHT22;54412;51.206;6.888;2023-12-07T01:14:18;2.90;99.90
5246;DHT22;54412;51.206;6.888;2023-12-07T01:16:44;2.90;99.90
5246;DHT22;54412;51.206;6.888;2023-12-07T01:19:11;2.90;99.90
5246;DHT22;54412;51.206;6.888;2023-12-07T01:21:40;2.80;99.90
5246;DHT22;54412;51.206;6.888;2023-12-07T01:24:07;2.80;99.90
5246;DHT22;54412;51.206;6.888;2023-12-07T01:26:33;2.80;99.90
5246;DHT22;54412;51.206;6.888;2023-12-07T01:28:58;2.90;99.90
5246;DHT22;54412;51.206;6.888;2023-12-07T01:31:24;2.90;99.90
5246;DHT22;54412;51.206;6.888;2023-12-07T01:33:50;2.90;99.90
5246;DHT22;54412;51.206;6.888;2023-12-07T01:36:15;2.90;99.90
5246;DHT22;54412;51.206;6.888;2023-12-07T01:38:41;2.80;99.90
5246;DHT22;54412;51.206;6.888;2023-12-07T01:41:08;2.80;99.90
5246;DHT22;54412;51.206;6.888;2023-12-07T01:43:34;2.90;99.90
5246;DHT22;54412;51.206;6.888;2023-12-07T01:46:00;2.90;99.90
5246;DHT22;54412;51.206;6.888;2023-12-07T01:48:27;3.00;99.90
5246;DHT22;54412;51.206;6.888;2023-12-07T01:50:56;2.80;99.90
5246;DHT22;54412;51.206;6.888;2023-12-07T01:53:24;2.80;99.90
5246;DHT22;54412;51.206;6.888;2023-12-07T01:55:52;2.80;99.90
5246;DHT22;54412;51.206;6.888;2023-12-07T01:58:19;3.00;99.90
5246;DHT22;54412;51.206;6.888;2023-12-07T02:00:47;2.90;99.90
5246;DHT22;54412;51.206;6.888;2023-12-07T02:03:13;3.00;99.90
5246;DHT22;54412;51.206;6.888;2023-12-07T02:05:43;3.00;99.90
5246;DHT22;54412;51.206;6.888;2023-12-07T02:08:12;3.00;99.90
5246;DHT22;54412;51.206;6.888;2023-12-07T02:10:38;2.90;99.90
5246;DHT22;54412;51.206;6.888;2023-12-07T02:13:05;3.00;99.90
5246;DHT22;54412;51.206;6.888;2023-12-07T02:15:31;3.20;99.90
5246;DHT22;54412;51.206;6.888;2023-12-07T02:18:14;3.30;99.90
5246;DHT22;54412;51.206;6.888;2023-12-07T02:20:58;3.30;99.90
5246;DHT22;54412;51.206;6.888;2023-12-07T02:23:32;3.30;99.90
5246;DHT22;54412;51.206;6.888;2023-12-07T02:26:02;3.40;99.90
5246;DHT22;54412;51.206;6.888;2023-12-07T02:28:29;3.40;99.90
5246;DHT22;54412;51.206;6.888;2023-12-07T02:30:55;3.40;99.90
5246;DHT22;54412;51.206;6.888;2023-12-07T02:33:21;3.50;99.90
5246;DHT22;54412;51.206;6.888;2023-12-07T02:35:46;3.50;99.90
5246;DHT22;54412;51.206;6.888;2023-12-07T02:38:12;3.50;99.90
5246;DHT22;54412;51.206;6.888;2023-12-07T02:40:40;3.50;99.90
5246;DHT22;54412;51.206;6.888;2023-12-07T02:43:09;3.60;99.90
5246;DHT22;54412;51.206;6.888;2023-12-07T02:45:35;3.60;99.90
5246;DHT22;54412;51.206;6.888;2023-12-07T02:48:01;3.50;99.90
5246;DHT22;54412;51.206;6.888;2023-12-07T02:50:27;3.50;99.90
5246;DHT22;54412;51.206;6.888;2023-12-07T02:52:52;3.70;99.90
5246;DHT22;54412;51.206;6.888;2023-12-07T02:55:18;3.70;99.90
5246;DHT22;54412;51.206;6.888;2023-12-07T02:57:44;3.70;99.90
5246;DHT22;54412;51.206;6.888;2023-12-07T03:00:11;3.70;99.90
5246;DHT22;54412;51.206;6.888;2023-12-07T03:02:39;3.70;99.90
5246;DHT22;54412;51.206;6.888;2023-12-07T03:05:06;3.80;99.90
5246;DHT22;54412;51.206;6.888;2023-12-07T03:07:33;3.80;99.90
5246;DHT22;54412;51.206;6.888;2023-12-07T03:09:59;3.90;99.90
5246;DHT22;54412;51.206;6.888;2023-12-07T03:12:25;3.80;99.90
5246;DHT22;54412;51.206;6.888;2023-12-07T03:14:51;3.80;99.90
5246;DHT22;54412;51.206;6.888;2023-12-07T03:17:16;3.70;99.90
5246;DHT22;54412;51.206;6.888;2023-12-07T03:19:42;3.80;99.90
5246;DHT22;54412;51.206;6.888;2023-12-07T03:22:08;3.80;99.90
5246;DHT22;54412;51.206;6.888;2023-12-07T03:24:35;3.70;99.90
5246;DHT22;54412;51.206;6.888;2023-12-07T03:27:01;3.80;99.90
5246;DHT22;54412;51.206;6.888;2023-12-07T03:29:27;3.80;99.90
5246;DHT22;54412;51.206;6.888;2023-12-07T03:31:53;3.80;99.90
5246;DHT22;54412;51.206;6.888;2023-12-07T03:34:19;3.90;99.90
5246;DHT22;54412;51.206;6.888;2023-12-07T03:36:48;3.80;99.90
5246;DHT22;54412;51.206;6.888;2023-12-07T03:39:14;3.80;99.90
5246;DHT22;54412;51.206;6.888;2023-12-07T03:41:41;3.90;99.90
5246;DHT22;54412;51.206;6.888;2023-12-07T03:44:07;3.80;99.90
5246;DHT22;54412;51.206;6.888;2023-12-07T03:46:33;3.80;99.90
5246;DHT22;54412;51.206;6.888;2023-12-07T03:48:58;4.00;99.90
5246;DHT22;54412;51.206;6.888;2023-12-07T03:51:26;3.90;99.90
5246;DHT22;54412;51.206;6.888;2023-12-07T03:53:54;3.90;99.90
5246;DHT22;54412;51.206;6.888;2023-12-07T03:56:27;3.90;99.90
5246;DHT22;54412;51.206;6.888;2023-12-07T03:58:54;4.10;99.90
5246;DHT22;54412;51.206;6.888;2023-12-07T04:01:27;4.10;99.90
5246;DHT22;54412;51.206;6.888;2023-12-07T04:03:55;4.00;99.90
5246;DHT22;54412;51.206;6.888;2023-12-07T04:06:22;4.00;99.90
5246;DHT22;54412;51.206;6.888;2023-12-07T04:08:48;4.10;99.90
5246;DHT22;54412;51.206;6.888;2023-12-07T04:11:15;4.10;99.90
5246;DHT22;54412;51.206;6.888;2023-12-07T04:13:41;4.00;99.90
5246;DHT22;54412;51.206;6.888;2023-12-07T04:16:07;4.10;99.90
5246;DHT22;54412;51.206;6.888;2023-12-07T04:18:34;4.00;99.90
5246;DHT22;54412;51.206;6.888;2023-12-07T04:21:00;4.00;99.90
5246;DHT22;54412;51.206;6.888;2023-12-07T04:23:25;4.10;99.90
5246;DHT22;54412;51.206;6.888;2023-12-07T04:25:51;4.00;99.90
5246;DHT22;54412;51.206;6.888;2023-12-07T04:28:17;4.10;99.90
5246;DHT22;54412;51.206;6.888;2023-12-07T04:30:42;4.10;99.90
5246;DHT22;54412;51.206;6.888;2023-12-07T04:33:08;4.10;99.90
5246;DHT22;54412;51.206;6.888;2023-12-07T04:35:34;4.10;99.90
5246;DHT22;54412;51.206;6.888;2023-12-07T04:38:01;4.10;99.90
5246;DHT22;54412;51.206;6.888;2023-12-07T04:40:27;4.10;99.90
5246;DHT22;54412;51.206;6.888;2023-12-07T04:42:53;4.10;99.90
5246;DHT22;54412;51.206;6.888;2023-12-07T04:45:19;4.10;99.90
5246;DHT22;54412;51.206;6.888;2023-12-07T04:47:45;4.10;99.90
5246;DHT22;54412;51.206;6.888;2023-12-07T04:50:11;4.10;99.90
5246;DHT22;54412;51.206;6.888;2023-12-07T04:52:36;4.20;99.90
5246;DHT22;54412;51.206;6.888;2023-12-07T04:55:02;4.30;99.90
5246;DHT22;54412;51.206;6.888;2023-12-07T04:57:28;4.40;99.90
5246;DHT22;54412;51.206;6.888;2023-12-07T04:59:54;4.40;99.90
5246;DHT22;54412;51.206;6.888;2023-12-07T05:02:20;4.40;99.90
5246;DHT22;54412;51.206;6.888;2023-12-07T05:04:45;4.30;99.90
5246;DHT22;54412;51.206;6.888;2023-12-07T05:07:12;4.40;99.90
5246;DHT22;54412;51.206;6.888;2023-12-07T05:09:38;4.40;99.90
5246;DHT22;54412;51.206;6.888;2023-12-07T05:12:05;4.40;99.90
5246;DHT22;54412;51.206;6.888;2023-12-07T05:14:31;4.30;99.90
5246;DHT22;54412;51.206;6.888;2023-12-07T05:16:57;4.50;99.90
5246;DHT22;54412;51.206;6.888;2023-12-07T05:19:24;4.50;99.90
5246;DHT22;54412;51.206;6.888;2023-12-07T05:21:50;4.50;99.90
5246;DHT22;54412;51.206;6.888;2023-12-07T05:24:17;4.50;99.90
5246;DHT22;54412;51.206;6.888;2023-12-07T05:26:44;4.50;99.90
5246;DHT22;54412;51.206;6.888;2023-12-07T05:29:14;4.60;99.90
5246;DHT22;54412;51.206;6.888;2023-12-07T05:31:41;4.60;99.90
5246;DHT22;54412;51.206;6.888;2023-12-07T05:34:09;4.60;99.90
5246;DHT22;54412;51.206;6.888;2023-12-07T05:36:36;4.60;99.90
5246;DHT22;54412;51.206;6.888;2023-12-07T05:39:02;4.60;99.90
5246;DHT22;54412;51.206;6.888;2023-12-07T05:41:27;4.60;99.90
5246;DHT22;54412;51.206;6.888;2023-12-07T05:43:53;4.50;99.90
5246;DHT22;54412;51.206;6.888;2023-12-07T05:46:19;4.50;99.90
5246;DHT22;54412;51.206;6.888;2023-12-07T05:48:45;4.50;99.90
5246;DHT22;54412;51.206;6.888;2023-12-07T05:51:13;4.50;99.90
5246;DHT22;54412;51.206;6.888;2023-12-07T05:53:40;4.50;99.90
5246;DHT22;54412;51.206;6.888;2023-12-07T05:56:07;4.50;99.90
5246;DHT22;54412;51.206;6.888;2023-12-07T05:58:32;4.50;99.90
5246;DHT22;54412;51.206;6.888;2023-12-07T06:00:59;4.70;99.90
5246;DHT22;54412;51.206;6.888;2023-12-07T06:03:25;4.70;99.90
5246;DHT22;54412;51.206;6.888;2023-12-07T06:05:51;4.80;99.90
5246;DHT22;54412;51.206;6.888;2023-12-07T06:08:17;4.70;99.90
5246;DHT22;54412;51.206;6.888;2023-12-07T06:10:43;4.70;99.90
5246;DHT22;54412;51.206;6.888;2023-12-07T06:13:09;4.70;99.90
5246;DHT22;54412;51.206;6.888;2023-12-07T06:15:35;4.80;99.90
5246;DHT22;54412;51.206;6.888;2023-12-07T06:18:01;4.80;99.90
5246;DHT22;54412;51.206;6.888;2023-12-07T06:20:27;4.70;99.90
5246;DHT22;54412;51.206;6.888;2023-12-07T06:22:53;4.60;99.90
5246;DHT22;54412;51.206;6.888;2023-12-07T06:25:18;4.50;99.90
5246;DHT22;54412;51.206;6.888;2023-12-07T06:27:44;4.50;99.90
5246;DHT22;54412;51.206;6.888;2023-12-07T06:30:10;4.40;99.90
5246;DHT22;54412;51.206;6.888;2023-12-07T06:32:36;4.40;99.90
5246;DHT22;54412;51.206;6.888;2023-12-07T06:35:02;4.40;99.90
5246;DHT22;54412;51.206;6.888;2023-12-07T06:37:30;4.30;99.90
5246;DHT22;54412;51.206;6.888;2023-12-07T06:39:55;4.40;99.90
5246;DHT22;54412;51.206;6.888;2023-12-07T06:42:21;4.40;99.90
5246;DHT22;54412;51.206;6.888;2023-12-07T06:44:47;4.30;99.90
5246;DHT22;54412;51.206;6.888;2023-12-07T06:47:16;4.30;99.90
5246;DHT22;54412;51.206;6.888;2023-12-07T06:49:43;4.30;99.90
5246;DHT22;54412;51.206;6.888;2023-12-07T06:52:11;4.30;99.90
5246;DHT22;54412;51.206;6.888;2023-12-07T06:54:37;4.30;99.90
5246;DHT22;54412;51.206;6.888;2023-12-07T06:57:06;4.20;99.90
5246;DHT22;54412;51.206;6.888;2023-12-07T06:59:32;4.20;99.90
5246;DHT22;54412;51.206;6.888;2023-12-07T07:01:58;4.30;99.90
5246;DHT22;54412;51.206;6.888;2023-12-07T07:04:24;4.20;99.90
5246;DHT22;54412;51.206;6.888;2023-12-07T07:06:50;4.30;99.90
5246;DHT22;54412;51.206;6.888;2023-12-07T07:09:17;4.30;99.90
5246;DHT22;54412;51.206;6.888;2023-12-07T07:11:49;4.20;99.90
5246;DHT22;54412;51.206;6.888;2023-12-07T07:14:16;4.20;99.90
5246;DHT22;54412;51.206;6.888;2023-12-07T07:16:42;4.20;99.90
5246;DHT22;54412;51.206;6.888;2023-12-07T07:19:07;4.10;99.90
5246;DHT22;54412;51.206;6.888;2023-12-07T07:21:33;4.10;99.90
5246;DHT22;54412;51.206;6.888;2023-12-07T07:23:59;4.00;99.90
5246;DHT22;54412;51.206;6.888;2023-12-07T07:26:25;4.00;99.90
5246;DHT22;54412;51.206;6.888;2023-12-07T07:28:52;4.00;99.90
5246;DHT22;54412;51.206;6.888;2023-12-07T07:31:18;4.00;99.90
5246;DHT22;54412;51.206;6.888;2023-12-07T07:33:44;4.00;99.90
5246;DHT22;54412;51.206;6.888;2023-12-07T07:36:13;4.00;99.90
5246;DHT22;54412;51.206;6.888;2023-12-07T07:38:40;4.00;99.90
5246;DHT22;54412;51.206;6.888;2023-12-07T07:41:06;4.00;99.90
5246;DHT22;54412;51.206;6.888;2023-12-07T07:43:32;3.90;99.90
5246;DHT22;54412;51.206;6.888;2023-12-07T07:45:59;3.80;99.90
5246;DHT22;54412;51.206;6.888;2023-12-07T07:48:26;3.90;99.90
5246;DHT22;54412;51.206;6.888;2023-12-07T07:50:52;3.80;99.90
5246;DHT22;54412;51.206;6.888;2023-12-07T07:53:17;3.80;99.90
5246;DHT22;54412;51.206;6.888;2023-12-07T07:55:43;3.90;99.90
5246;DHT22;54412;51.206;6.888;2023-12-07T07:58:09;3.90;99.90
5246;DHT22;54412;51.206;6.888;2023-12-07T08:00:35;3.80;99.90
5246;DHT22;54412;51.206;6.888;2023-12-07T08:03:00;3.90;99.90
5246;DHT22;54412;51.206;6.888;2023-12-07T08:05:26;3.80;99.90
5246;DHT22;54412;51.206;6.888;2023-12-07T08:07:51;3.90;99.90
5246;DHT22;54412;51.206;6.888;2023-12-07T08:10:17;3.70;99.90
5246;DHT22;54412;51.206;6.888;2023-12-07T08:12:43;3.80;99.90
5246;DHT22;54412;51.206;6.888;2023-12-07T08:15:10;3.70;99.90
5246;DHT22;54412;51.206;6.888;2023-12-07T08:17:38;3.70;99.90
5246;DHT22;54412;51.206;6.888;2023-12-07T08:20:06;3.80;99.90
5246;DHT22;54412;51.206;6.888;2023-12-07T08:22:36;3.80;99.90
5246;DHT22;54412;51.206;6.888;2023-12-07T08:25:06;3.70;99.90
5246;DHT22;54412;51.206;6.888;2023-12-07T08:27:34;3.80;99.90
5246;DHT22;54412;51.206;6.888;2023-12-07T08:30:00;3.80;99.90
5246;DHT22;54412;51.206;6.888;2023-12-07T08:32:26;4.00;99.90
5246;DHT22;54412;51.206;6.888;2023-12-07T08:34:52;4.20;99.90
5246;DHT22;54412;51.206;6.888;2023-12-07T08:37:18;4.20;99.90
5246;DHT22;54412;51.206;6.888;2023-12-07T08:39:44;4.20;99.90
5246;DHT22;54412;51.206;6.888;2023-12-07T08:42:10;4.20;99.90
5246;DHT22;54412;51.206;6.888;2023-12-07T08:44:36;4.20;99.90
5246;DHT22;54412;51.206;6.888;2023-12-07T08:47:02;4.10;99.90
5246;DHT22;54412;51.206;6.888;2023-12-07T08:49:28;4.40;99.90
5246;DHT22;54412;51.206;6.888;2023-12-07T08:51:54;4.30;99.90
5246;DHT22;54412;51.206;6.888;2023-12-07T08:54:21;4.40;99.90
5246;DHT22;54412;51.206;6.888;2023-12-07T08:56:47;4.30;99.90
5246;DHT22;54412;51.206;6.888;2023-12-07T08:59:13;4.40;99.90
5246;DHT22;54412;51.206;6.888;2023-12-07T09:01:39;4.60;99.90
5246;DHT22;54412;51.206;6.888;2023-12-07T09:04:04;4.70;99.90
5246;DHT22;54412;51.206;6.888;2023-12-07T09:06:30;4.60;99.90
5246;DHT22;54412;51.206;6.888;2023-12-07T09:08:56;4.40;99.90
5246;DHT22;54412;51.206;6.888;2023-12-07T09:11:22;4.60;99.90
5246;DHT22;54412;51.206;6.888;2023-12-07T09:13:48;4.90;99.90
5246;DHT22;54412;51.206;6.888;2023-12-07T09:16:14;5.00;99.90
5246;DHT22;54412;51.206;6.888;2023-12-07T09:18:41;5.00;99.90
5246;DHT22;54412;51.206;6.888;2023-12-07T09:21:08;5.10;99.90
5246;DHT22;54412;51.206;6.888;2023-12-07T09:23:34;5.10;99.90
5246;DHT22;54412;51.206;6.888;2023-12-07T09:26:00;5.40;99.90
5246;DHT22;54412;51.206;6.888;2023-12-07T09:28:26;5.30;99.90
5246;DHT22;54412;51.206;6.888;2023-12-07T09:30:52;5.10;99.90
5246;DHT22;54412;51.206;6.888;2023-12-07T09:33:17;5.10;99.90
5246;DHT22;54412;51.206;6.888;2023-12-07T09:35:43;5.20;99.90
5246;DHT22;54412;51.206;6.888;2023-12-07T09:38:09;5.10;99.90
5246;DHT22;54412;51.206;6.888;2023-12-07T09:40:35;5.00;99.90
5246;DHT22;54412;51.206;6.888;2023-12-07T09:43:01;5.30;99.90
5246;DHT22;54412;51.206;6.888;2023-12-07T09:45:27;5.30;99.90
5246;DHT22;54412;51.206;6.888;2023-12-07T09:47:54;5.30;99.90
5246;DHT22;54412;51.206;6.888;2023-12-07T09:50:21;5.30;99.90
5246;DHT22;54412;51.206;6.888;2023-12-07T09:52:53;4.90;99.90
5246;DHT22;54412;51.206;6.888;2023-12-07T09:55:22;5.00;99.90
5246;DHT22;54412;51.206;6.888;2023-12-07T09:57:49;5.20;99.90
5246;DHT22;54412;51.206;6.888;2023-12-07T10:00:16;5.80;99.90
5246;DHT22;54412;51.206;6.888;2023-12-07T10:02:45;5.60;99.90
5246;DHT22;54412;51.206;6.888;2023-12-07T10:05:13;5.80;99.90
5246;DHT22;54412;51.206;6.888;2023-12-07T10:07:42;5.80;99.90
5246;DHT22;54412;51.206;6.888;2023-12-07T10:10:10;5.50;99.90
5246;DHT22;54412;51.206;6.888;2023-12-07T10:12:52;5.90;99.90
5246;DHT22;54412;51.206;6.888;2023-12-07T10:15:21;5.80;99.90
5246;DHT22;54412;51.206;6.888;2023-12-07T10:17:50;5.90;99.90
5246;DHT22;54412;51.206;6.888;2023-12-07T10:20:25;5.70;99.90
5246;DHT22;54412;51.206;6.888;2023-12-07T10:23:08;5.80;99.90
5246;DHT22;54412;51.206;6.888;2023-12-07T10:25:40;5.80;99.90
5246;DHT22;54412;51.206;6.888;2023-12-07T10:28:07;5.90;99.90
5246;DHT22;54412;51.206;6.888;2023-12-07T10:30:37;5.60;99.90
5246;DHT22;54412;51.206;6.888;2023-12-07T10:33:06;5.50;99.90
5246;DHT22;54412;51.206;6.888;2023-12-07T10:35:33;5.40;99.90
5246;DHT22;54412;51.206;6.888;2023-12-07T10:37:58;5.00;99.90
5246;DHT22;54412;51.206;6.888;2023-12-07T10:40:25;5.10;99.90
5246;DHT22;54412;51.206;6.888;2023-12-07T10:42:56;5.20;99.90
5246;DHT22;54412;51.206;6.888;2023-12-07T10:45:24;4.80;99.90
5246;DHT22;54412;51.206;6.888;2023-12-07T10:48:02;4.60;99.90
5246;DHT22;54412;51.206;6.888;2023-12-07T10:50:43;4.60;99.90
5246;DHT22;54412;51.206;6.888;2023-12-07T10:53:19;4.70;99.90
5246;DHT22;54412;51.206;6.888;2023-12-07T10:55:55;4.80;99.90
5246;DHT22;54412;51.206;6.888;2023-12-07T10:58:23;5.00;99.90
5246;DHT22;54412;51.206;6.888;2023-12-07T11:00:52;4.80;99.90
5246;DHT22;54412;51.206;6.888;2023-12-07T11:03:18;5.00;99.90
5246;DHT22;54412;51.206;6.888;2023-12-07T11:05:48;5.10;99.90
5246;DHT22;54412;51.206;6.888;2023-12-07T11:08:21;5.20;99.90
5246;DHT22;54412;51.206;6.888;2023-12-07T11:14:07;5.20;99.90
5246;DHT22;54412;51.206;6.888;2023-12-07T11:16:35;5.50;99.90
5246;DHT22;54412;51.206;6.888;2023-12-07T11:21:59;5.30;99.90
5246;DHT22;54412;51.206;6.888;2023-12-07T11:24:25;5.70;99.90
5246;DHT22;54412;51.206;6.888;2023-12-07T11:26:57;6.10;99.90
5246;DHT22;54412;51.206;6.888;2023-12-07T11:29:31;6.50;99.90
5246;DHT22;54412;51.206;6.888;2023-12-07T11:32:01;6.60;99.90
5246;DHT22;54412;51.206;6.888;2023-12-07T11:34:39;6.30;99.90
5246;DHT22;54412;51.206;6.888;2023-12-07T11:37:07;5.80;99.90
5246;DHT22;54412;51.206;6.888;2023-12-07T11:39:38;5.60;99.90
5246;DHT22;54412;51.206;6.888;2023-12-07T11:42:12;5.40;99.90
5246;DHT22;54412;51.206;6.888;2023-12-07T11:44:41;5.40;99.90
5246;DHT22;54412;51.206;6.888;2023-12-07T11:47:10;5.60;99.90
5246;DHT22;54412;51.206;6.888;2023-12-07T11:49:42;6.00;99.90
5246;DHT22;54412;51.206;6.888;2023-12-07T11:52:26;6.20;99.90
5246;DHT22;54412;51.206;6.888;2023-12-07T11:54:53;6.40;99.90
5246;DHT22;54412;51.206;6.888;2023-12-07T11:57:18;7.00;99.90
5246;DHT22;54412;51.206;6.888;2023-12-07T11:59:45;6.90;99.90
5246;DHT22;54412;51.206;6.888;2023-12-07T12:02:13;7.10;99.90
5246;DHT22;54412;51.206;6.888;2023-12-07T12:04:40;7.60;99.90
5246;DHT22;54412;51.206;6.888;2023-12-07T12:07:06;7.40;99.90
5246;DHT22;54412;51.206;6.888;2023-12-07T12:09:32;7.10;99.90
5246;DHT22;54412;51.206;6.888;2023-12-07T12:11:59;7.30;99.90
5246;DHT22;54412;51.206;6.888;2023-12-07T12:14:26;7.40;99.90
5246;DHT22;54412;51.206;6.888;2023-12-07T12:16:53;7.30;99.90
5246;DHT22;54412;51.206;6.888;2023-12-07T12:19:20;7.10;99.90
5246;DHT22;54412;51.206;6.888;2023-12-07T12:21:45;7.00;99.90
5246;DHT22;54412;51.206;6.888;2023-12-07T12:24:12;7.20;99.90
5246;DHT22;54412;51.206;6.888;2023-12-07T12:26:41;7.20;99.90
5246;DHT22;54412;51.206;6.888;2023-12-07T12:29:07;7.30;99.90
5246;DHT22;54412;51.206;6.888;2023-12-07T12:31:34;7.50;99.90
5246;DHT22;54412;51.206;6.888;2023-12-07T12:34:01;7.60;99.90
5246;DHT22;54412;51.206;6.888;2023-12-07T12:36:27;7.70;99.90
5246;DHT22;54412;51.206;6.888;2023-12-07T12:38:54;7.90;99.90
5246;DHT22;54412;51.206;6.888;2023-12-07T12:41:21;7.80;99.90
5246;DHT22;54412;51.206;6.888;2023-12-07T12:43:48;7.80;99.90
5246;DHT22;54412;51.206;6.888;2023-12-07T12:46:16;8.10;99.90
5246;DHT22;54412;51.206;6.888;2023-12-07T12:48:58;8.10;99.90
5246;DHT22;54412;51.206;6.888;2023-12-07T12:51:28;8.50;99.90
5246;DHT22;54412;51.206;6.888;2023-12-07T12:53:58;8.70;99.90
5246;DHT22;54412;51.206;6.888;2023-12-07T12:56:26;8.90;99.90
5246;DHT22;54412;51.206;6.888;2023-12-07T12:58:54;8.90;99.90
5246;DHT22;54412;51.206;6.888;2023-12-07T13:01:23;8.90;99.90
5246;DHT22;54412;51.206;6.888;2023-12-07T13:03:49;8.90;99.90
5246;DHT22;54412;51.206;6.888;2023-12-07T13:06:15;9.00;99.90
5246;DHT22;54412;51.206;6.888;2023-12-07T13:08:47;9.20;99.90
5246;DHT22;54412;51.206;6.888;2023-12-07T13:11:17;9.50;99.90
5246;DHT22;54412;51.206;6.888;2023-12-07T13:13:45;9.40;99.90
5246;DHT22;54412;51.206;6.888;2023-12-07T13:16:16;9.00;99.90
5246;DHT22;54412;51.206;6.888;2023-12-07T13:18:42;8.80;99.90
5246;DHT22;54412;51.206;6.888;2023-12-07T13:21:08;8.60;99.90
5246;DHT22;54412;51.206;6.888;2023-12-07T13:23:35;8.70;99.90
5246;DHT22;54412;51.206;6.888;2023-12-07T13:26:02;8.50;99.90
5246;DHT22;54412;51.206;6.888;2023-12-07T13:28:28;9.00;99.90
5246;DHT22;54412;51.206;6.888;2023-12-07T13:30:53;9.00;99.90
5246;DHT22;54412;51.206;6.888;2023-12-07T13:33:19;9.50;99.90
5246;DHT22;54412;51.206;6.888;2023-12-07T13:35:45;9.90;99.90
5246;DHT22;54412;51.206;6.888;2023-12-07T13:38:11;10.20;99.90
5246;DHT22;54412;51.206;6.888;2023-12-07T13:40:37;9.80;99.90
5246;DHT22;54412;51.206;6.888;2023-12-07T13:43:03;9.70;99.90
5246;DHT22;54412;51.206;6.888;2023-12-07T13:45:28;10.10;99.90
5246;DHT22;54412;51.206;6.888;2023-12-07T13:47:54;10.10;99.90
5246;DHT22;54412;51.206;6.888;2023-12-07T13:50:20;10.10;99.90
5246;DHT22;54412;51.206;6.888;2023-12-07T13:52:45;9.80;99.90
5246;DHT22;54412;51.206;6.888;2023-12-07T13:55:11;9.50;99.90
5246;DHT22;54412;51.206;6.888;2023-12-07T13:57:38;9.60;99.90
5246;DHT22;54412;51.206;6.888;2023-12-07T14:00:05;9.60;99.90
5246;DHT22;54412;51.206;6.888;2023-12-07T14:02:31;10.00;99.90
5246;DHT22;54412;51.206;6.888;2023-12-07T14:04:57;9.80;99.90
5246;DHT22;54412;51.206;6.888;2023-12-07T14:07:22;9.80;99.90
5246;DHT22;54412;51.206;6.888;2023-12-07T14:09:50;9.50;99.90
5246;DHT22;54412;51.206;6.888;2023-12-07T14:12:17;9.20;99.90
5246;DHT22;54412;51.206;6.888;2023-12-07T14:14:44;8.70;99.90
5246;DHT22;54412;51.206;6.888;2023-12-07T14:17:13;8.50;99.90
5246;DHT22;54412;51.206;6.888;2023-12-07T14:19:39;7.90;99.90
5246;DHT22;54412;51.206;6.888;2023-12-07T14:22:06;7.70;99.90
5246;DHT22;54412;51.206;6.888;2023-12-07T14:24:35;7.40;99.90
5246;DHT22;54412;51.206;6.888;2023-12-07T14:27:03;7.20;99.90
5246;DHT22;54412;51.206;6.888;2023-12-07T14:29:30;7.20;99.90
5246;DHT22;54412;51.206;6.888;2023-12-07T14:31:57;6.90;99.90
5246;DHT22;54412;51.206;6.888;2023-12-07T14:34:24;6.80;99.90
5246;DHT22;54412;51.206;6.888;2023-12-07T14:36:52;6.60;99.90
5246;DHT22;54412;51.206;6.888;2023-12-07T14:39:18;6.50;99.90
5246;DHT22;54412;51.206;6.888;2023-12-07T14:41:46;6.40;99.90
5246;DHT22;54412;51.206;6.888;2023-12-07T14:44:16;6.30;99.90
5246;DHT22;54412;51.206;6.888;2023-12-07T14:46:47;5.90;99.90
5246;DHT22;54412;51.206;6.888;2023-12-07T14:49:15;5.80;99.90
5246;DHT22;54412;51.206;6.888;2023-12-07T14:51:42;5.80;99.90
5246;DHT22;54412;51.206;6.888;2023-12-07T14:54:09;5.70;99.90
5246;DHT22;54412;51.206;6.888;2023-12-07T14:56:38;5.70;99.90
5246;DHT22;54412;51.206;6.888;2023-12-07T14:59:05;5.70;99.90
5246;DHT22;54412;51.206;6.888;2023-12-07T15:01:31;5.80;99.90
5246;DHT22;54412;51.206;6.888;2023-12-07T15:03:57;5.70;99.90
5246;DHT22;54412;51.206;6.888;2023-12-07T15:06:25;5.70;99.90
5246;DHT22;54412;51.206;6.888;2023-12-07T15:08:51;5.80;99.90
5246;DHT22;54412;51.206;6.888;2023-12-07T15:11:17;5.70;99.90
5246;DHT22;54412;51.206;6.888;2023-12-07T15:13:43;5.60;99.90
5246;DHT22;54412;51.206;6.888;2023-12-07T15:16:09;5.70;99.90
5246;DHT22;54412;51.206;6.888;2023-12-07T15:18:36;5.70;99.90
5246;DHT22;54412;51.206;6.888;2023-12-07T15:21:05;5.60;99.90
5246;DHT22;54412;51.206;6.888;2023-12-07T15:23:31;5.50;99.90
5246;DHT22;54412;51.206;6.888;2023-12-07T15:25:58;5.50;99.90
5246;DHT22;54412;51.206;6.888;2023-12-07T15:28:23;5.50;99.90
5246;DHT22;54412;51.206;6.888;2023-12-07T15:30:49;5.40;99.90
5246;DHT22;54412;51.206;6.888;2023-12-07T15:33:15;5.40;99.90
5246;DHT22;54412;51.206;6.888;2023-12-07T15:35:42;5.20;99.90
5246;DHT22;54412;51.206;6.888;2023-12-07T15:38:08;5.20;99.90
5246;DHT22;54412;51.206;6.888;2023-12-07T15:40:36;5.30;99.90
5246;DHT22;54412;51.206;6.888;2023-12-07T15:43:02;5.20;99.90
5246;DHT22;54412;51.206;6.888;2023-12-07T15:45:28;5.20;99.90
5246;DHT22;54412;51.206;6.888;2023-12-07T15:47:53;5.20;99.90
5246;DHT22;54412;51.206;6.888;2023-12-07T15:50:19;5.20;99.90
5246;DHT22;54412;51.206;6.888;2023-12-07T15:52:45;5.10;99.90
5246;DHT22;54412;51.206;6.888;2023-12-07T15:55:10;5.00;99.90
5246;DHT22;54412;51.206;6.888;2023-12-07T15:57:36;5.00;99.90
5246;DHT22;54412;51.206;6.888;2023-12-07T16:00:03;4.80;99.90
5246;DHT22;54412;51.206;6.888;2023-12-07T16:02:28;5.40;99.90
5246;DHT22;54412;51.206;6.888;2023-12-07T16:04:54;5.30;99.90
5246;DHT22;54412;51.206;6.888;2023-12-07T16:07:20;5.30;99.90